YLQ weather

La Tuque Airport
La Tuque, Quebec, Canada

Public forecast

Using degrees Celsius for public forecast. Weather courtesy of forecast.io.

Closest aviation weather report (METAR) to La Tuque Airport

Closest report is C J.H.L.(Joe) Lecomte) Heliport, 60.7 nm (112.5 km) ESE. Retrieved 2020/06/05 02:00 UTC (54 minutes ago):

CYOY 050200Z AUTO 00000KT 9SM CLR 12/07 A2978 RMK SLP089

Closest aviation forecast (TAF) to La Tuque Airport

Forecast is more than 12 hours old.

Closest forecast is C J.H.L.(Joe) Lecomte) Heliport, 60.7 nm (112.5 km) ESE. Retrieved 2020/03/13 12:00 UTC (3 months ago):

TAF CYOY 131130Z 1312/1324 07010G20KT P6SM SCT015 OVC030 TEMPO 1312/1314 3SM -SN OVC015 PROB30 1312/1314 3SM -FZRA -PL BR OVC010 FM131400 07015G30KT 3SM -SN OVC010 TEMPO 1314/1320 3/4SM -SHSN VV004 PROB30 1314/1320 3SM -FZRA -PL BR FM132000 VRB03KT 3SM -SN OVC008 PROB30 1320/1324 2SM -FZDZ BR OVC005 RMK FCST BASED ON AUTO OBS NXT FCST BY 131800Z